Time;durP1;ratioP1;P1;durP2;ratioP2;P2;SDS_P1;SDS_P2;PMS_P1;PMS_P2;Temp;Humidity;BMP_temperature;BMP_pressure;BME280_temperature;BME280_humidity;BME280_pressure;Samples;Min_cycle;Max_cycle;Signal;HPM_P1;HPM_P2
2022/03/06 00:00:06;;;;;;;7.33;4.30;;;;;;;1.92;63.98;102775.41;5049872;28;20432;-45
2022/03/06 00:02:34;;;;;;;5.20;4.90;;;;;;;1.87;64.01;102772.22;5046365;28;20438;-47
2022/03/06 00:05:02;;;;;;;5.43;5.10;;;;;;;1.89;63.93;102780.88;5050860;28;20442;-45
2022/03/06 00:07:30;;;;;;;3.90;3.80;;;;;;;1.85;64.85;102779.38;5042267;28;20491;-46
2022/03/06 00:09:58;;;;;;;5.20;4.80;;;;;;;1.83;64.98;102776.81;5019095;28;20436;-44
2022/03/06 00:12:25;;;;;;;4.20;4.00;;;;;;;1.79;64.79;102783.22;5036682;28;20519;-47
2022/03/06 00:14:54;;;;;;;4.40;4.20;;;;;;;1.78;65.33;102781.50;5039824;28;20746;-47
2022/03/06 00:17:22;;;;;;;4.80;4.50;;;;;;;1.79;66.11;102774.47;5036037;28;21040;-46
2022/03/06 00:19:50;;;;;;;4.80;4.60;;;;;;;1.72;66.40;102773.13;5046959;28;20488;-47
2022/03/06 00:22:17;;;;;;;4.07;3.83;;;;;;;1.61;66.91;102771.97;5048310;28;20427;-48
2022/03/06 00:24:45;;;;;;;5.23;3.93;;;;;;;1.66;66.44;102771.72;5049520;28;20431;-47
2022/03/06 00:27:13;;;;;;;6.23;4.37;;;;;;;1.62;67.59;102770.19;5046542;28;20471;-44
2022/03/06 00:29:40;;;;;;;5.10;4.80;;;;;;;1.60;66.79;102772.06;5047121;28;20435;-44
2022/03/06 00:32:10;;;;;;;5.47;5.17;;;;;;;1.55;66.11;102761.78;5050774;28;20457;-43
2022/03/06 00:34:37;;;;;;;5.87;5.53;;;;;;;1.54;66.33;102768.00;5047724;28;20432;-45
2022/03/06 00:37:05;;;;;;;6.03;5.63;;;;;;;1.54;66.47;102765.38;5050265;28;20793;-47
2022/03/06 00:39:34;;;;;;;4.83;4.53;;;;;;;1.54;66.11;102762.75;5046286;28;20450;-48
2022/03/06 00:42:02;;;;;;;4.47;4.27;;;;;;;1.55;65.45;102760.97;5047285;28;20435;-44
2022/03/06 00:44:32;;;;;;;5.13;4.70;;;;;;;1.54;65.15;102762.75;5044005;28;20833;-47
2022/03/06 00:47:00;;;;;;;4.70;4.40;;;;;;;1.53;65.41;102762.81;5041059;28;20858;-44
2022/03/06 00:49:30;;;;;;;11.70;4.73;;;;;;;1.45;67.28;102758.03;5053544;23;20478;-43
2022/03/06 00:51:58;;;;;;;4.07;3.97;;;;;;;1.48;66.76;102760.47;5049055;28;20539;-43
2022/03/06 00:54:26;;;;;;;4.30;4.10;;;;;;;1.52;66.71;102763.78;5039428;28;20451;-43
2022/03/06 00:56:54;;;;;;;4.33;4.13;;;;;;;1.53;66.61;102766.31;5052094;28;20959;-44
2022/03/06 00:59:21;;;;;;;4.73;4.53;;;;;;;1.44;67.53;102766.00;5050939;28;20466;-43
2022/03/06 01:01:49;;;;;;;4.50;4.30;;;;;;;1.37;66.66;102762.03;5039818;28;20432;-45
2022/03/06 01:04:17;;;;;;;4.40;4.10;;;;;;;1.32;67.74;102764.91;5034630;28;20476;-44
2022/03/06 01:06:47;;;;;;;5.70;5.20;;;;;;;1.33;67.63;102766.63;5044078;28;20434;-42
2022/03/06 01:09:14;;;;;;;4.83;4.23;;;;;;;1.32;67.23;102774.56;5041379;28;20831;-42
2022/03/06 01:11:42;;;;;;;4.23;4.03;;;;;;;1.32;67.19;102769.31;5037444;28;20528;-43
2022/03/06 01:14:10;;;;;;;5.20;4.90;;;;;;;1.35;67.74;102770.00;5040959;28;20440;-43
2022/03/06 01:16:38;;;;;;;4.20;4.00;;;;;;;1.35;66.60;102771.78;5039017;28;21082;-46
2022/03/06 01:19:05;;;;;;;4.07;3.87;;;;;;;1.32;66.55;102774.56;5044858;28;20483;-43
2022/03/06 01:21:33;;;;;;;4.57;4.20;;;;;;;1.33;67.83;102776.28;5039742;28;20430;-45
2022/03/06 01:24:02;;;;;;;8.17;5.23;;;;;;;1.31;67.60;102771.13;5053095;28;20437;-44
2022/03/06 01:26:30;;;;;;;5.37;4.93;;;;;;;1.32;67.21;102767.53;5023347;28;20439;-44
2022/03/06 01:28:58;;;;;;;4.40;4.23;;;;;;;1.37;67.13;102775.19;5042711;28;20554;-44
2022/03/06 01:31:25;;;;;;;4.73;4.53;;;;;;;1.40;67.86;102767.97;5052701;28;20530;-43
2022/03/06 01:33:53;;;;;;;5.10;4.90;;;;;;;1.44;67.65;102773.88;5042213;28;21011;-43
2022/03/06 01:36:21;;;;;;;4.83;4.63;;;;;;;1.47;67.28;102766.66;5053904;28;20481;-42
2022/03/06 01:38:48;;;;;;;5.40;5.20;;;;;;;1.49;67.12;102769.22;5037050;28;20551;-46
2022/03/06 01:41:17;;;;;;;5.37;4.87;;;;;;;1.50;67.28;102771.75;5033703;28;20432;-42
2022/03/06 01:43:45;;;;;;;5.30;5.00;;;;;;;1.50;67.72;102773.53;5042855;28;20435;-44
2022/03/06 01:46:14;;;;;;;5.57;5.17;;;;;;;1.51;67.68;102768.19;5053801;28;20443;-43
2022/03/06 01:48:41;;;;;;;5.63;5.40;;;;;;;1.53;67.68;102765.47;5036564;28;21027;-42
2022/03/06 01:51:09;;;;;;;4.80;4.60;;;;;;;1.54;67.52;102764.53;5034989;28;20797;-43
2022/03/06 01:53:37;;;;;;;8.63;4.60;;;;;;;1.53;67.72;102763.69;5051164;28;20431;-44
2022/03/06 01:56:05;;;;;;;5.33;5.00;;;;;;;1.50;68.08;102763.00;5040238;28;20801;-43
2022/03/06 01:58:34;;;;;;;5.43;4.93;;;;;;;1.51;68.02;102770.81;5051573;28;20459;-44
2022/03/06 02:01:01;;;;;;;6.53;5.60;;;;;;;1.54;68.37;102768.00;5039942;28;20523;-43
2022/03/06 02:03:29;;;;;;;6.13;5.73;;;;;;;1.51;68.53;102767.34;5033606;28;20519;-44
2022/03/06 02:05:57;;;;;;;6.50;5.73;;;;;;;1.50;68.30;102752.50;5033503;28;20440;-45
2022/03/06 02:08:25;;;;;;;5.60;5.33;;;;;;;1.49;68.49;102759.53;5032591;28;20476;-43
2022/03/06 02:10:54;;;;;;;5.80;5.40;;;;;;;1.43;66.88;102759.91;5048293;28;20428;-44
2022/03/06 02:13:21;;;;;;;5.03;4.83;;;;;;;1.45;67.12;102755.41;5042277;28;20439;-45
2022/03/06 02:15:50;;;;;;;6.77;6.03;;;;;;;1.45;67.32;102755.41;5044367;28;20443;-46
2022/03/06 02:18:19;;;;;;;7.40;5.40;;;;;;;1.41;67.33;102748.63;5049071;28;20466;-45
2022/03/06 02:20:48;;;;;;;5.83;5.53;;;;;;;1.44;67.29;102752.84;5033800;28;20527;-43
2022/03/06 02:23:17;;;;;;;6.27;5.87;;;;;;;1.42;67.80;102750.31;5041303;28;20431;-44
2022/03/06 02:25:44;;;;;;;6.30;5.80;;;;;;;1.37;68.10;102752.38;5044831;28;20523;-43
2022/03/06 02:28:12;;;;;;;6.27;5.33;;;;;;;1.37;68.33;102739.22;5046488;28;20832;-43
2022/03/06 02:30:41;;;;;;;6.53;6.13;;;;;;;1.35;68.58;102737.59;5032701;28;20898;-43
2022/03/06 02:33:11;;;;;;;6.40;6.00;;;;;;;1.27;68.32;102745.94;5046111;28;20443;-43
2022/03/06 02:35:39;;;;;;;6.07;5.63;;;;;;;1.26;68.26;102746.88;5032951;28;20810;-43
2022/03/06 02:38:08;;;;;;;5.37;5.13;;;;;;;1.25;68.21;102752.22;5039909;28;20464;-43
2022/03/06 02:40:40;;;;;;;5.47;5.13;;;;;;;1.25;68.55;102744.34;5046463;28;20440;-43
2022/03/06 02:43:09;;;;;;;5.97;5.67;;;;;;;1.22;68.29;102744.53;5034226;28;20432;-44
2022/03/06 02:45:38;;;;;;;7.77;5.67;;;;;;;1.20;68.51;102741.09;5038763;28;20424;-44
2022/03/06 02:48:06;;;;;;;5.67;5.37;;;;;;;1.16;68.86;102744.88;5031723;28;20833;-43
2022/03/06 02:50:35;;;;;;;5.60;5.30;;;;;;;1.10;69.73;102738.19;5032533;28;20458;-44
2022/03/06 02:53:06;;;;;;;6.83;6.07;;;;;;;1.04;69.78;102728.88;5030984;28;20432;-43
2022/03/06 02:55:34;;;;;;;6.07;5.73;;;;;;;0.94;70.46;102730.31;5043379;28;20454;-45
2022/03/06 02:58:03;;;;;;;5.87;5.53;;;;;;;0.83;70.63;102731.84;5049592;28;20466;-44
2022/03/06 03:00:31;;;;;;;6.47;6.13;;;;;;;0.77;70.99;102732.19;5049435;28;20550;-43
2022/03/06 03:02:59;;;;;;;6.67;6.20;;;;;;;0.75;71.71;102740.13;5041336;28;20814;-43
2022/03/06 03:05:27;;;;;;;7.20;6.60;;;;;;;0.67;72.84;102741.50;5032186;28;20807;-45
2022/03/06 03:07:55;;;;;;;6.80;6.40;;;;;;;0.63;72.30;102740.81;5031418;28;20548;-45
2022/03/06 03:10:25;;;;;;;6.80;6.50;;;;;;;0.61;73.39;102744.44;5046916;28;20827;-46
2022/03/06 03:12:54;;;;;;;6.87;6.40;;;;;;;0.55;73.87;102745.63;5046928;28;20526;-46
2022/03/06 03:15:24;;;;;;;6.13;5.87;;;;;;;0.48;74.41;102745.13;5042070;28;20435;-44
2022/03/06 03:17:52;;;;;;;6.90;6.50;;;;;;;0.46;74.70;102748.75;5035375;28;20536;-43
2022/03/06 03:20:20;;;;;;;8.13;7.73;;;;;;;0.40;74.58;102744.69;5045519;28;20425;-43
2022/03/06 03:22:47;;;;;;;6.67;6.37;;;;;;;0.33;74.63;102747.75;5033841;28;20447;-43
2022/03/06 03:25:15;;;;;;;7.53;7.23;;;;;;;0.24;75.11;102750.84;5050633;28;20420;-47
2022/03/06 03:27:43;;;;;;;6.97;6.57;;;;;;;0.16;75.29;102751.25;5031973;28;20465;-43
2022/03/06 03:30:11;;;;;;;7.70;7.10;;;;;;;0.12;75.12;102754.94;5047054;28;20478;-46
2022/03/06 03:32:41;;;;;;;7.40;6.90;;;;;;;0.07;75.53;102756.13;5044515;28;20523;-43
2022/03/06 03:35:09;;;;;;;10.63;9.93;;;;;;;0.06;75.26;102754.44;5042313;28;20466;-43
2022/03/06 03:37:37;;;;;;;7.93;7.40;;;;;;;-0.01;75.32;102757.38;5048895;28;20534;-44
2022/03/06 03:40:07;;;;;;;7.63;7.20;;;;;;;-0.05;76.37;102752.38;5032062;28;20423;-46
2022/03/06 03:42:35;;;;;;;8.20;7.50;;;;;;;-0.11;75.75;102756.16;5034538;28;20519;-44
2022/03/06 03:45:03;;;;;;;8.20;7.50;;;;;;;-0.20;76.44;102756.63;5040142;28;20520;-44
2022/03/06 03:47:31;;;;;;;7.90;7.50;;;;;;;-0.24;76.63;102756.88;5032283;28;20455;-45
2022/03/06 03:50:00;;;;;;;7.60;6.97;;;;;;;-0.31;76.41;102760.72;5044334;28;20481;-45
2022/03/06 03:52:27;;;;;;;8.30;7.60;;;;;;;-0.33;76.83;102763.41;5044814;28;20986;-44
2022/03/06 03:54:55;;;;;;;8.73;8.30;;;;;;;-0.38;77.47;102756.69;5028868;28;20427;-42
2022/03/06 03:57:23;;;;;;;9.00;8.30;;;;;;;-0.38;77.61;102764.56;5055065;28;20433;-44
2022/03/06 03:59:51;;;;;;;9.80;9.10;;;;;;;-0.41;78.01;102768.19;5038314;28;20941;-45
2022/03/06 04:02:18;;;;;;;9.40;8.70;;;;;;;-0.42;78.43;102757.81;5027076;28;20428;-45
2022/03/06 04:04:46;;;;;;;8.20;7.80;;;;;;;-0.46;78.61;102762.34;5051666;28;20442;-44
2022/03/06 04:07:16;;;;;;;8.63;8.07;;;;;;;-0.48;78.00;102764.19;5040736;28;20428;-45
2022/03/06 04:09:43;;;;;;;7.93;7.23;;;;;;;-0.50;78.26;102755.53;5037048;28;20818;-44
2022/03/06 04:12:11;;;;;;;8.90;8.10;;;;;;;-0.51;77.68;102753.00;5047088;28;20454;-46
2022/03/06 04:14:39;;;;;;;8.27;7.77;;;;;;;-0.51;78.50;102753.88;5046655;28;20515;-42
2022/03/06 04:17:07;;;;;;;8.23;7.83;;;;;;;-0.52;78.31;102765.28;5046221;28;20438;-42
2022/03/06 04:19:34;;;;;;;7.93;7.63;;;;;;;-0.52;78.79;102760.03;5046581;28;20526;-42
2022/03/06 04:22:02;;;;;;;8.70;8.30;;;;;;;-0.53;78.32;102750.47;5040408;28;20438;-43
2022/03/06 04:24:31;;;;;;;8.30;7.97;;;;;;;-0.56;78.99;102756.69;5049874;28;20946;-44
2022/03/06 04:26:59;;;;;;;8.57;8.07;;;;;;;-0.57;79.18;102755.00;5052325;28;20538;-43
2022/03/06 04:29:27;;;;;;;9.50;8.90;;;;;;;-0.54;79.09;102764.50;5040252;28;20478;-44
2022/03/06 04:31:54;;;;;;;10.57;9.77;;;;;;;-0.52;79.07;102761.78;5037368;28;20432;-43
2022/03/06 04:34:22;;;;;;;9.50;8.90;;;;;;;-0.51;79.34;102766.13;5040120;28;20439;-43
2022/03/06 04:36:50;;;;;;;9.37;8.87;;;;;;;-0.57;78.74;102768.09;5043564;28;20427;-45
2022/03/06 04:39:18;;;;;;;8.30;7.90;;;;;;;-0.59;78.64;102771.72;5038595;28;20539;-43
2022/03/06 04:41:47;;;;;;;8.40;7.63;;;;;;;-0.60;78.79;102780.53;5034744;28;20432;-43
2022/03/06 04:44:14;;;;;;;7.47;7.10;;;;;;;-0.62;78.83;102777.97;5036916;28;20444;-43
2022/03/06 04:46:42;;;;;;;8.23;7.83;;;;;;;-0.60;79.27;102768.25;5038758;28;20471;-44
2022/03/06 04:49:10;;;;;;;8.57;8.10;;;;;;;-0.57;78.51;102760.25;5047556;28;20980;-45
2022/03/06 04:51:38;;;;;;;9.80;9.37;;;;;;;-0.63;77.72;102768.41;5034829;28;20439;-45
2022/03/06 04:54:05;;;;;;;9.80;9.10;;;;;;;-0.71;77.20;102777.56;5050109;28;20431;-46
2022/03/06 04:56:33;;;;;;;10.37;9.63;;;;;;;-0.80;76.67;102772.75;5053642;28;20434;-43
2022/03/06 04:59:02;;;;;;;9.50;8.97;;;;;;;-0.91;76.80;102775.91;5051323;28;20463;-46
2022/03/06 05:01:30;;;;;;;9.83;9.23;;;;;;;-0.99;76.06;102780.69;5048837;28;20428;-43
2022/03/06 05:04:00;;;;;;;11.00;8.70;;;;;;;-1.09;76.19;102774.16;5043948;28;20470;-43
2022/03/06 05:06:28;;;;;;;9.70;9.30;;;;;;;-1.18;76.37;102788.53;5034644;28;20852;-44
2022/03/06 05:08:56;;;;;;;9.83;9.27;;;;;;;-1.26;76.39;102787.19;5038701;28;20618;-44
2022/03/06 05:11:24;;;;;;;9.33;8.83;;;;;;;-1.33;76.29;102783.16;5034626;28;20472;-43
2022/03/06 05:13:51;;;;;;;10.97;10.20;;;;;;;-1.37;76.70;102790.31;5035200;28;20546;-45
2022/03/06 05:16:21;;;;;;;37.57;23.00;;;;;;;-1.43;76.92;102787.09;5034195;28;20531;-45
2022/03/06 05:18:48;;;;;;;16.33;14.63;;;;;;;-1.49;76.89;102782.19;5034729;28;20467;-43
2022/03/06 05:21:16;;;;;;;13.93;12.00;;;;;;;-1.53;76.86;102783.22;5049800;28;20424;-44
2022/03/06 05:23:43;;;;;;;10.43;9.53;;;;;;;-1.57;77.58;102792.13;5034989;28;20945;-43
2022/03/06 05:26:11;;;;;;;9.67;8.97;;;;;;;-1.60;77.15;102784.41;5038034;28;20432;-43
2022/03/06 05:28:41;;;;;;;10.40;9.43;;;;;;;-1.63;77.00;102784.53;5050566;28;20489;-46
2022/03/06 05:31:09;;;;;;;9.93;9.13;;;;;;;-1.68;77.64;102790.00;5054083;28;20554;-43
2022/03/06 05:33:38;;;;;;;10.07;9.40;;;;;;;-1.72;77.77;102784.06;5053493;28;20435;-43
2022/03/06 05:36:06;;;;;;;9.63;9.13;;;;;;;-1.75;77.65;102783.31;5048255;28;20809;-43
2022/03/06 05:38:34;;;;;;;10.17;9.47;;;;;;;-1.78;77.92;102789.56;5047473;28;20466;-46
2022/03/06 05:41:01;;;;;;;11.63;10.93;;;;;;;-1.82;78.90;102782.75;5047224;28;20431;-43
2022/03/06 05:43:29;;;;;;;9.80;9.50;;;;;;;-1.81;78.68;102791.44;5033780;28;20821;-43
2022/03/06 05:45:58;;;;;;;9.70;9.20;;;;;;;-1.84;78.45;102784.59;5045724;28;20797;-45
2022/03/06 05:48:26;;;;;;;10.83;10.07;;;;;;;-1.80;79.10;102785.31;5051640;28;20467;-44
2022/03/06 05:50:55;;;;;;;11.40;10.30;;;;;;;-1.75;79.76;102784.19;5047645;28;20946;-45
2022/03/06 05:53:22;;;;;;;8.97;8.67;;;;;;;-1.69;80.11;102790.91;5043886;28;20438;-45
2022/03/06 05:55:50;;;;;;;10.40;9.80;;;;;;;-1.64;80.18;102788.09;5043003;28;20994;-44
2022/03/06 05:58:18;;;;;;;9.90;9.40;;;;;;;-1.60;80.28;102777.41;5032885;28;20466;-44
2022/03/06 06:00:46;;;;;;;9.70;9.20;;;;;;;-1.54;80.03;102773.66;5033854;28;20435;-43
2022/03/06 06:03:14;;;;;;;8.37;7.83;;;;;;;-1.51;79.48;102771.78;5033141;28;20436;-45
2022/03/06 06:05:41;;;;;;;10.10;9.60;;;;;;;-1.49;79.60;102769.09;5045870;28;20431;-43
2022/03/06 06:08:10;;;;;;;8.27;7.77;;;;;;;-1.46;79.89;102780.25;5036894;28;20463;-44
2022/03/06 06:10:38;;;;;;;7.83;7.43;;;;;;;-1.44;79.41;102775.81;5053091;28;20507;-44
2022/03/06 06:13:09;;;;;;;7.80;7.40;;;;;;;-1.42;79.70;102791.44;5053599;28;20435;-44
2022/03/06 06:15:37;;;;;;;8.00;7.60;;;;;;;-1.41;79.05;102785.28;5053486;28;20422;-43
2022/03/06 06:18:06;;;;;;;8.50;8.10;;;;;;;-1.41;79.43;102783.53;5052828;28;20627;-43
2022/03/06 06:20:33;;;;;;;9.10;8.20;;;;;;;-1.37;79.75;102781.59;5053276;28;20427;-43
2022/03/06 06:23:01;;;;;;;8.40;7.90;;;;;;;-1.36;79.07;102791.16;5051847;28;21033;-44
2022/03/06 06:25:30;;;;;;;8.00;7.60;;;;;;;-1.31;79.69;102792.63;5053204;28;20503;-44
2022/03/06 06:27:57;;;;;;;8.60;7.80;;;;;;;-1.26;79.23;102795.06;5052521;28;20460;-42
2022/03/06 06:30:25;;;;;;;8.00;7.40;;;;;;;-1.16;79.54;102791.06;5053480;28;20497;-44
2022/03/06 06:32:53;;;;;;;7.20;6.90;;;;;;;-1.06;80.12;102794.97;5052912;28;20435;-44
2022/03/06 06:35:21;;;;;;;8.57;7.87;;;;;;;-0.99;79.79;102801.63;5052670;28;20437;-43
2022/03/06 06:37:48;;;;;;;9.07;8.13;;;;;;;-0.88;79.66;102790.63;5051701;28;20466;-43
2022/03/06 06:40:16;;;;;;;7.23;6.90;;;;;;;-0.78;80.50;102784.03;5052657;28;20507;-43
2022/03/06 06:42:45;;;;;;;8.37;7.77;;;;;;;-0.72;79.33;102792.44;5052341;28;20940;-43
2022/03/06 06:45:13;;;;;;;9.40;8.87;;;;;;;-0.64;79.98;102790.31;5052763;28;20431;-43
2022/03/06 06:47:40;;;;;;;8.70;8.20;;;;;;;-0.58;79.40;102791.78;5051628;28;20455;-43
2022/03/06 06:50:09;;;;;;;8.40;8.00;;;;;;;-0.50;79.47;102801.88;5057542;22;20868;-48
2022/03/06 06:52:36;;;;;;;8.63;8.23;;;;;;;-0.41;79.17;102799.66;5028463;28;20451;-45
2022/03/06 06:55:06;;;;;;;9.10;8.47;;;;;;;-0.14;79.64;102806.13;5030589;28;20443;-44
2022/03/06 06:57:34;;;;;;;8.10;7.80;;;;;;;0.13;80.19;102806.50;5030995;28;20469;-48
2022/03/06 07:00:05;;;;;;;9.50;8.73;;;;;;;0.41;80.61;102809.38;5031780;28;20540;-49
2022/03/06 07:02:33;;;;;;;8.93;8.33;;;;;;;0.67;80.73;102817.63;5031601;28;20439;-45
2022/03/06 07:05:03;;;;;;;8.13;7.73;;;;;;;0.89;80.97;102815.56;5030320;28;20501;-49
2022/03/06 07:07:31;;;;;;;7.97;7.57;;;;;;;1.05;80.77;102817.25;5030965;28;20990;-46
2022/03/06 07:09:58;;;;;;;7.80;7.40;;;;;;;1.24;80.35;102803.94;5031728;28;20449;-46
2022/03/06 07:12:26;;;;;;;7.40;7.00;;;;;;;1.39;79.87;102810.09;5031305;28;20486;-49
2022/03/06 07:14:53;;;;;;;6.83;6.53;;;;;;;1.54;79.69;102812.72;5030363;28;20429;-45
2022/03/06 07:17:23;;;;;;;6.73;6.33;;;;;;;1.61;78.77;102810.59;5030099;28;20968;-49
2022/03/06 07:19:50;;;;;;;7.27;6.17;;;;;;;1.68;78.76;102810.13;5031223;28;20451;-46
2022/03/06 07:22:18;;;;;;;6.40;5.83;;;;;;;1.76;77.53;102808.84;5029878;28;20531;-49
2022/03/06 07:24:46;;;;;;;6.40;6.10;;;;;;;1.83;75.89;102815.41;5030183;28;20432;-47
2022/03/06 07:27:13;;;;;;;6.23;5.83;;;;;;;1.97;74.12;102807.59;5010695;28;20431;-49
2022/03/06 07:29:41;;;;;;;6.70;6.30;;;;;;;2.32;75.38;102811.56;5028584;28;20448;-46
2022/03/06 07:32:09;;;;;;;6.07;5.67;;;;;;;2.74;75.89;102822.13;5029807;28;21038;-48
2022/03/06 07:34:38;;;;;;;5.70;5.50;;;;;;;3.20;75.94;102814.75;5028561;28;20428;-48
2022/03/06 07:37:06;;;;;;;5.57;5.37;;;;;;;3.53;74.44;102811.72;5030426;28;20436;-46
2022/03/06 07:39:34;;;;;;;6.40;5.80;;;;;;;3.67;70.70;102810.84;5031018;28;20514;-45
2022/03/06 07:42:01;;;;;;;6.27;5.87;;;;;;;3.87;68.43;102803.28;5031107;28;20442;-48
2022/03/06 07:44:29;;;;;;;5.93;5.60;;;;;;;4.06;67.17;102809.94;5030157;28;20474;-49
2022/03/06 07:46:56;;;;;;;5.97;5.53;;;;;;;4.02;65.04;102811.94;5029776;28;20424;-49
2022/03/06 07:49:24;;;;;;;5.70;5.40;;;;;;;4.03;63.16;102802.25;5030195;28;20845;-46
2022/03/06 07:51:53;;;;;;;6.00;5.40;;;;;;;4.05;64.31;102808.25;5030879;28;21089;-46
2022/03/06 07:54:21;;;;;;;5.57;5.17;;;;;;;3.94;62.14;102811.63;5030430;28;20448;-49
2022/03/06 07:56:49;;;;;;;6.00;5.60;;;;;;;3.87;62.38;102811.19;5030371;28;20432;-45
2022/03/06 07:59:16;;;;;;;4.90;4.70;;;;;;;3.81;62.94;102810.75;5030214;28;20467;-45
2022/03/06 08:01:44;;;;;;;5.97;5.50;;;;;;;3.82;62.62;102808.00;5030752;28;20952;-49
2022/03/06 08:04:12;;;;;;;5.70;5.40;;;;;;;3.90;63.27;102815.41;5030415;28;20963;-49
2022/03/06 08:06:39;;;;;;;9.27;6.10;;;;;;;4.05;63.69;102818.81;5030498;28;20483;-46
2022/03/06 08:09:08;;;;;;;5.60;5.40;;;;;;;4.09;63.35;102817.66;5029994;28;20480;-45
2022/03/06 08:11:36;;;;;;;10.03;5.97;;;;;;;4.19;61.41;102806.34;5030933;28;20562;-47
2022/03/06 08:14:03;;;;;;;6.43;6.10;;;;;;;4.36;62.89;102818.41;5030120;28;20511;-48
2022/03/06 08:16:31;;;;;;;6.23;5.80;;;;;;;4.53;62.12;102814.59;5029844;28;20436;-47
2022/03/06 08:18:59;;;;;;;6.57;5.80;;;;;;;4.70;60.70;102815.09;5029187;28;20563;-46
2022/03/06 08:21:26;;;;;;;8.83;5.57;;;;;;;4.71;60.64;102818.59;5031057;28;20417;-43
2022/03/06 08:23:54;;;;;;;10.53;4.87;;;;;;;4.66;59.02;102821.53;5030407;28;20527;-44
2022/03/06 08:26:24;;;;;;;4.50;4.30;;;;;;;4.68;60.09;102817.00;5029985;28;20511;-48
2022/03/06 08:28:51;;;;;;;6.50;5.87;;;;;;;4.66;59.23;102820.72;5028306;28;20466;-44
2022/03/06 08:31:19;;;;;;;6.03;4.73;;;;;;;4.67;59.16;102825.88;5030810;28;20720;-47
2022/03/06 08:33:47;;;;;;;7.27;5.40;;;;;;;4.71;59.12;102823.88;5030834;28;20451;-50
2022/03/06 08:36:16;;;;;;;6.50;5.30;;;;;;;4.75;58.83;102828.81;5033368;28;20929;-46
2022/03/06 08:38:43;;;;;;;6.60;5.33;;;;;;;4.82;57.64;102819.53;5033426;28;20463;-46
2022/03/06 08:41:11;;;;;;;5.70;5.20;;;;;;;4.98;57.47;102827.22;5034125;28;20790;-44
2022/03/06 08:43:40;;;;;;;5.63;5.10;;;;;;;5.06;58.74;102830.13;5033702;28;20440;-48
2022/03/06 08:46:08;;;;;;;4.50;4.30;;;;;;;5.17;57.48;102826.75;5030895;28;20832;-46
2022/03/06 08:48:37;;;;;;;10.13;8.40;;;;;;;5.21;54.72;102821.09;5033285;28;20472;-51
2022/03/06 08:51:05;;;;;;;5.20;4.80;;;;;;;5.34;56.36;102834.28;5034166;28;20892;-49
2022/03/06 08:53:34;;;;;;;4.67;4.27;;;;;;;5.34;54.69;102831.66;5033664;28;20519;-49
2022/03/06 08:56:01;;;;;;;3.73;3.53;;;;;;;5.33;54.81;102833.44;5032819;28;20955;-48
2022/03/06 08:58:29;;;;;;;4.07;3.77;;;;;;;5.45;54.68;102827.25;5033582;28;20472;-48
2022/03/06 09:00:58;;;;;;;3.87;3.67;;;;;;;5.51;54.71;102829.44;5034138;28;20470;-46
2022/03/06 09:03:26;;;;;;;4.93;4.53;;;;;;;5.51;54.42;102826.81;5033276;28;20451;-46
2022/03/06 09:05:54;;;;;;;4.27;4.07;;;;;;;5.24;54.15;102827.97;5032967;28;21240;-43
2022/03/06 09:08:21;;;;;;;5.50;4.53;;;;;;;5.34;53.26;102829.00;5032656;28;20472;-48
2022/03/06 09:10:49;;;;;;;7.43;4.00;;;;;;;5.33;54.52;102820.22;5033946;28;20432;-46
2022/03/06 09:13:17;;;;;;;3.97;3.67;;;;;;;5.14;53.79;102826.97;5033207;28;20570;-46
2022/03/06 09:15:44;;;;;;;4.20;3.67;;;;;;;5.04;54.66;102829.41;5033032;28;20443;-46
2022/03/06 09:18:13;;;;;;;3.70;3.50;;;;;;;4.97;53.59;102829.00;5033042;28;20470;-46
2022/03/06 09:20:41;;;;;;;3.57;3.37;;;;;;;5.14;55.25;102833.06;5033475;28;20805;-49
2022/03/06 09:23:09;;;;;;;4.83;4.37;;;;;;;5.14;54.13;102822.50;5033106;28;20438;-45
2022/03/06 09:25:37;;;;;;;3.53;3.33;;;;;;;5.12;53.51;102834.13;5032670;28;20437;-45
2022/03/06 09:28:05;;;;;;;4.30;4.00;;;;;;;5.42;55.18;102834.56;5032771;28;20486;-47
2022/03/06 09:30:33;;;;;;;6.30;4.97;;;;;;;5.56;55.13;102829.94;5033007;28;20960;-49
2022/03/06 09:33:01;;;;;;;4.53;4.33;;;;;;;5.48;54.00;102823.53;5033401;28;20486;-50
2022/03/06 09:35:30;;;;;;;5.50;5.10;;;;;;;5.41;54.21;102831.06;5031740;28;20436;-48
2022/03/06 09:37:58;;;;;;;4.97;4.50;;;;;;;5.52;54.44;102817.06;5032689;28;20460;-48
2022/03/06 09:40:26;;;;;;;4.90;4.50;;;;;;;5.55;53.86;102819.50;5032939;28;20456;-49
2022/03/06 09:42:54;;;;;;;5.13;4.73;;;;;;;5.71;55.43;102821.81;5032838;28;20446;-47
2022/03/06 09:45:24;;;;;;;4.53;4.13;;;;;;;5.80;54.52;102829.06;5028531;28;20428;-46
2022/03/06 09:47:53;;;;;;;4.57;4.20;;;;;;;5.88;54.25;102818.81;5032224;28;20456;-50
2022/03/06 09:50:21;;;;;;;4.37;4.07;;;;;;;5.84;53.59;102820.81;5032650;28;20464;-45
2022/03/06 09:52:50;;;;;;;5.40;3.70;;;;;;;5.91;52.81;102813.28;5032636;28;20478;-45
2022/03/06 09:55:17;;;;;;;4.70;4.40;;;;;;;5.91;53.06;102822.03;5031413;28;20446;-46
2022/03/06 09:57:45;;;;;;;5.10;4.70;;;;;;;5.81;52.53;102810.44;5032235;28;20474;-50
2022/03/06 10:00:14;;;;;;;5.07;4.67;;;;;;;5.62;53.23;102818.06;5032670;28;20452;-46
2022/03/06 10:02:52;;;;;;;5.13;4.83;;;;;;;5.48;52.78;102815.59;5032215;28;20856;-47
2022/03/06 10:05:27;;;;;;;5.30;4.90;;;;;;;5.71;53.44;102816.53;5031629;28;20436;-45
2022/03/06 10:08:15;;;;;;;5.80;5.43;;;;;;;6.19;53.59;102817.28;5031870;28;20908;-46
2022/03/06 10:10:43;;;;;;;5.33;5.03;;;;;;;6.69;54.05;102814.19;5032688;28;20837;-51
2022/03/06 10:13:19;;;;;;;6.13;5.57;;;;;;;6.89;52.03;102816.13;5032181;28;20476;-45
2022/03/06 10:16:17;;;;;;;5.97;5.40;;;;;;;7.08;51.18;102808.38;5031294;28;20430;-45
2022/03/06 10:18:47;;;;;;;5.33;4.90;;;;;;;6.90;52.23;102812.50;4978185;28;20467;-43
2022/03/06 10:21:17;;;;;;;5.70;5.23;;;;;;;6.58;52.35;102819.50;5022715;28;20929;-44
2022/03/06 10:23:48;;;;;;;6.20;5.73;;;;;;;6.46;52.34;102815.16;5031451;28;20511;-44
2022/03/06 10:26:18;;;;;;;6.00;5.60;;;;;;;6.11;53.69;102816.09;5031230;28;20420;-46
2022/03/06 10:28:55;;;;;;;5.70;5.30;;;;;;;6.14;53.57;102812.38;5031365;28;20562;-48
2022/03/06 10:31:25;;;;;;;6.10;5.60;;;;;;;6.44;52.67;102814.44;5032071;28;20794;-43
2022/03/06 10:34:01;;;;;;;7.10;5.70;;;;;;;6.22;54.32;102811.75;5031458;28;20899;-46
2022/03/06 10:36:33;;;;;;;7.40;5.90;;;;;;;6.36;52.31;102820.31;5031389;28;20455;-48
2022/03/06 10:39:04;;;;;;;6.30;5.77;;;;;;;6.40;54.21;102818.28;5030779;28;20967;-49
2022/03/06 10:41:38;;;;;;;5.83;5.43;;;;;;;6.44;54.72;102806.50;5031747;28;20793;-43
2022/03/06 10:44:07;;;;;;;5.53;5.13;;;;;;;6.66;53.86;102812.63;5031516;28;20436;-46
2022/03/06 10:46:36;;;;;;;6.20;5.70;;;;;;;6.91;54.38;102808.88;5031036;28;20742;-48
2022/03/06 10:49:12;;;;;;;6.90;6.40;;;;;;;6.79;55.33;102814.31;5031076;28;20496;-47
2022/03/06 10:51:42;;;;;;;7.10;6.50;;;;;;;6.70;55.98;102818.53;5032045;28;20519;-43
2022/03/06 10:54:13;;;;;;;7.40;6.80;;;;;;;5.99;55.89;102817.03;5031267;28;20848;-43
2022/03/06 10:56:43;;;;;;;6.17;5.77;;;;;;;5.94;56.84;102815.69;5030944;28;20432;-44
2022/03/06 10:59:18;;;;;;;5.67;5.37;;;;;;;6.04;58.18;102811.38;5030666;28;20965;-44
2022/03/06 11:01:47;;;;;;;8.63;5.80;;;;;;;6.01;56.40;102815.09;5031647;28;20436;-49
2022/03/06 11:04:17;;;;;;;6.67;6.07;;;;;;;6.12;56.26;102825.72;5030822;28;20440;-49
2022/03/06 11:06:47;;;;;;;6.30;5.80;;;;;;;6.05;56.01;102826.31;5031132;28;20490;-42
2022/03/06 11:09:17;;;;;;;9.57;5.80;;;;;;;6.32;57.71;102829.50;5031005;28;20478;-45
2022/03/06 11:11:46;;;;;;;7.60;5.30;;;;;;;5.92;57.80;102817.59;5031476;28;20519;-42
2022/03/06 11:14:15;;;;;;;6.63;6.13;;;;;;;6.18;58.12;102810.31;5029835;28;20567;-47
2022/03/06 11:16:42;;;;;;;7.93;7.13;;;;;;;6.19;58.80;102812.84;5030710;28;20440;-46
2022/03/06 11:19:11;;;;;;;7.87;7.33;;;;;;;6.51;59.11;102810.38;5029057;28;20993;-44
2022/03/06 11:21:40;;;;;;;8.13;7.07;;;;;;;6.13;58.71;102806.22;5029750;28;20494;-45
2022/03/06 11:24:12;;;;;;;7.07;6.67;;;;;;;5.96;60.64;102804.03;5030115;28;20433;-46
2022/03/06 11:27:16;;;;;;;7.37;6.77;;;;;;;5.81;59.16;102801.66;5029911;28;20436;-45
2022/03/06 11:29:58;;;;;;;6.10;5.60;;;;;;;5.75;59.31;102792.38;5029551;28;20452;-45
2022/03/06 11:32:28;;;;;;;7.10;6.50;;;;;;;5.88;61.40;102797.63;5029855;28;20432;-45
2022/03/06 11:35:05;;;;;;;6.53;6.07;;;;;;;6.13;60.04;102792.13;5029369;28;20817;-46